Time;durP1;ratioP1;P1;durP2;ratioP2;P2;SDS_P1;SDS_P2;PMS_P1;PMS_P2;Temp;Humidity;BMP_temperature;BMP_pressure;BME280_temperature;BME280_humidity;BME280_pressure;Samples;Min_cycle;Max_cycle;Signal;HPM_P1;HPM_P2
2022/03/16 00:01:52;;;;;;;;;;;5.10;99.90;;;;;;5086650;28;19932;-77
2022/03/16 00:04:18;;;;;;;;;;;5.10;99.90;;;;;;5083439;28;19924;-77
2022/03/16 00:06:45;;;;;;;;;;;5.10;99.90;;;;;;5090478;28;19927;-77
2022/03/16 00:09:11;;;;;;;;;;;5.00;99.90;;;;;;5077813;28;20372;-76
2022/03/16 00:11:38;;;;;;;;;;;4.90;99.90;;;;;;5085208;28;19925;-77
2022/03/16 00:14:05;;;;;;;;;;;4.90;99.90;;;;;;5085285;28;20284;-76
2022/03/16 00:16:31;;;;;;;;;;;4.90;99.90;;;;;;5083617;28;20384;-76
2022/03/16 00:18:58;;;;;;;;;;;4.90;99.90;;;;;;5090660;28;19924;-77
2022/03/16 00:21:24;;;;;;;;;;;4.90;99.90;;;;;;5102872;28;19931;-77
2022/03/16 00:23:51;;;;;;;;;;;4.80;99.90;;;;;;5079841;28;19928;-75
2022/03/16 00:26:17;;;;;;;;;;;4.80;99.90;;;;;;5090890;28;19931;-76
2022/03/16 00:28:44;;;;;;;;;;;4.80;99.90;;;;;;5087949;28;19947;-76
2022/03/16 00:31:10;;;;;;;;;;;4.70;99.90;;;;;;5081401;28;19925;-76
2022/03/16 00:33:37;;;;;;;;;;;4.80;99.90;;;;;;5090161;28;19924;-76
2022/03/16 00:36:03;;;;;;;;;;;4.80;99.90;;;;;;5090577;28;19947;-75
2022/03/16 00:38:30;;;;;;;;;;;4.80;99.90;;;;;;5088700;28;19928;-80
2022/03/16 00:40:56;;;;;;;;;;;4.70;99.90;;;;;;5088744;28;19932;-76
2022/03/16 00:43:23;;;;;;;;;;;4.70;99.90;;;;;;5085845;28;20011;-77
2022/03/16 00:45:49;;;;;;;;;;;4.70;99.90;;;;;;5084054;28;19928;-76
2022/03/16 00:48:16;;;;;;;;;;;4.70;99.90;;;;;;5090057;28;19982;-76
2022/03/16 00:50:42;;;;;;;;;;;4.60;99.90;;;;;;5089255;28;20112;-76
2022/03/16 00:53:09;;;;;;;;;;;4.60;99.90;;;;;;5079485;28;19932;-76
2022/03/16 00:55:36;;;;;;;;;;;4.60;99.90;;;;;;5090172;28;19928;-76
2022/03/16 00:58:02;;;;;;;;;;;4.50;99.90;;;;;;5084904;28;20386;-76
2022/03/16 01:00:29;;;;;;;;;;;4.50;99.90;;;;;;5086115;28;19924;-78
2022/03/16 01:02:55;;;;;;;;;;;4.50;99.90;;;;;;5082370;28;19924;-76
2022/03/16 01:05:22;;;;;;;;;;;4.50;99.90;;;;;;5087120;28;19929;-76
2022/03/16 01:07:48;;;;;;;;;;;4.40;99.90;;;;;;5070894;28;19989;-77
2022/03/16 01:10:15;;;;;;;;;;;4.40;99.90;;;;;;5089266;28;20286;-76
2022/03/16 01:12:41;;;;;;;;;;;4.40;99.90;;;;;;5072903;28;19936;-76
2022/03/16 01:15:08;;;;;;;;;;;4.40;99.90;;;;;;5090158;28;19924;-76
2022/03/16 01:17:34;;;;;;;;;;;4.40;99.90;;;;;;5081117;28;19931;-80
2022/03/16 01:20:01;;;;;;;;;;;4.40;99.90;;;;;;5086735;28;20683;-76
2022/03/16 01:22:28;;;;;;;;;;;4.30;99.90;;;;;;5081943;28;19946;-77
2022/03/16 01:24:54;;;;;;;;;;;4.40;99.90;;;;;;5078801;28;19928;-76
2022/03/16 01:27:21;;;;;;;;;;;4.30;99.90;;;;;;5104674;28;19924;-76
2022/03/16 01:29:47;;;;;;;;;;;4.30;99.90;;;;;;5088010;28;19924;-76
2022/03/16 01:32:14;;;;;;;;;;;4.30;99.90;;;;;;5085147;28;19925;-76
2022/03/16 01:34:40;;;;;;;;;;;4.30;99.90;;;;;;5090540;28;20379;-76
2022/03/16 01:37:07;;;;;;;;;;;4.30;99.90;;;;;;5090623;28;20387;-76
2022/03/16 01:39:33;;;;;;;;;;;4.30;99.90;;;;;;5089109;28;20368;-80
2022/03/16 01:42:00;;;;;;;;;;;4.20;99.90;;;;;;5093183;28;19924;-76
2022/03/16 01:44:26;;;;;;;;;;;4.20;99.90;;;;;;5081846;28;19924;-76
2022/03/16 01:55:30;;;;;;;;;;;4.20;99.90;;;;;;5016692;28;20016;-76
2022/03/16 01:57:57;;;;;;;;;;;4.20;99.90;;;;;;5020500;28;20272;-73
2022/03/16 02:00:24;;;;;;;;;;;4.20;99.90;;;;;;5019635;28;19925;-77
2022/03/16 02:02:50;;;;;;;;;;;4.10;99.90;;;;;;5033413;28;19935;-76
2022/03/16 02:05:17;;;;;;;;;;;4.10;99.90;;;;;;5032636;28;19929;-75
2022/03/16 02:07:43;;;;;;;;;;;4.10;99.90;;;;;;5032470;28;20425;-75
2022/03/16 02:10:10;;;;;;;;;;;4.10;99.90;;;;;;5022367;28;20371;-76
2022/03/16 02:12:36;;;;;;;;;;;4.10;99.90;;;;;;5027170;28;19932;-74
2022/03/16 02:15:03;;;;;;;;;;;4.00;99.90;;;;;;5017568;28;19925;-76
2022/03/16 02:17:29;;;;;;;;;;;4.00;99.90;;;;;;5016379;28;19925;-76
2022/03/16 02:19:56;;;;;;;;;;;4.00;99.90;;;;;;5026886;28;19932;-76
2022/03/16 02:22:22;;;;;;;;;;;4.00;99.90;;;;;;5025237;28;20290;-80
2022/03/16 02:24:49;;;;;;;;;;;3.90;99.90;;;;;;5024767;28;19925;-76
2022/03/16 02:27:15;;;;;;;;;;;4.00;99.90;;;;;;5031511;28;19948;-76
2022/03/16 02:29:42;;;;;;;;;;;3.90;99.90;;;;;;5029541;28;20016;-77
2022/03/16 02:32:08;;;;;;;;;;;3.90;99.90;;;;;;5010672;28;19925;-77
2022/03/16 02:34:35;;;;;;;;;;;3.90;99.90;;;;;;5023538;28;19925;-76
2022/03/16 02:37:01;;;;;;;;;;;3.80;99.90;;;;;;5025754;28;19936;-76
2022/03/16 02:39:28;;;;;;;;;;;3.80;99.90;;;;;;5012358;28;20292;-77
2022/03/16 02:41:55;;;;;;;;;;;3.70;99.90;;;;;;5033031;28;20279;-75
2022/03/16 02:44:21;;;;;;;;;;;3.70;99.90;;;;;;5032510;28;20339;-76
2022/03/16 02:46:48;;;;;;;;;;;3.70;99.90;;;;;;5027730;28;19929;-75
2022/03/16 02:49:14;;;;;;;;;;;3.70;99.90;;;;;;5019832;28;19926;-78
2022/03/16 02:51:41;;;;;;;;;;;3.60;99.90;;;;;;5016869;28;19925;-75
2022/03/16 02:54:07;;;;;;;;;;;3.60;99.90;;;;;;5019290;28;19929;-76
2022/03/16 02:56:34;;;;;;;;;;;3.60;99.90;;;;;;5007226;28;19926;-75
2022/03/16 02:59:00;;;;;;;;;;;3.60;99.90;;;;;;5024392;28;19925;-76
2022/03/16 03:01:27;;;;;;;;;;;3.60;99.90;;;;;;5011898;28;19926;-81
2022/03/16 03:03:54;;;;;;;;;;;3.60;99.90;;;;;;5019661;28;20385;-75
2022/03/16 03:06:20;;;;;;;;;;;3.60;99.90;;;;;;5009279;28;19956;-77
2022/03/16 03:08:48;;;;;;;;;;;3.50;99.90;;;;;;5024522;28;19928;-76
2022/03/16 03:11:14;;;;;;;;;;;3.50;99.90;;;;;;5027890;28;19929;-77
2022/03/16 03:13:41;;;;;;;;;;;3.40;99.90;;;;;;5019684;28;19925;-76
2022/03/16 03:16:07;;;;;;;;;;;3.50;99.90;;;;;;5026367;28;19925;-76
2022/03/16 03:18:35;;;;;;;;;;;3.50;99.90;;;;;;5009691;28;19932;-77
2022/03/16 03:21:01;;;;;;;;;;;3.40;99.90;;;;;;5028312;28;20028;-76
2022/03/16 03:23:28;;;;;;;;;;;3.40;99.90;;;;;;5030429;28;19925;-79
2022/03/16 03:25:54;;;;;;;;;;;3.30;99.90;;;;;;5002033;28;19926;-77
2022/03/16 03:28:21;;;;;;;;;;;3.30;99.90;;;;;;5010043;28;19926;-77
2022/03/16 03:30:48;;;;;;;;;;;3.30;99.90;;;;;;5006711;28;20006;-77
2022/03/16 03:33:14;;;;;;;;;;;3.30;99.90;;;;;;5026882;28;19929;-76
2022/03/16 03:35:41;;;;;;;;;;;3.30;99.90;;;;;;5031433;28;20031;-77
2022/03/16 03:38:07;;;;;;;;;;;3.30;99.90;;;;;;5019907;28;19948;-77
2022/03/16 03:40:34;;;;;;;;;;;3.30;99.90;;;;;;5024475;28;20379;-77
2022/03/16 03:43:01;;;;;;;;;;;3.30;99.90;;;;;;5006037;28;19929;-77
2022/03/16 03:45:27;;;;;;;;;;;3.40;99.90;;;;;;5026367;28;19932;-76
2022/03/16 03:47:54;;;;;;;;;;;3.40;99.90;;;;;;5019317;28;19935;-77
2022/03/16 03:50:20;;;;;;;;;;;3.40;99.90;;;;;;5014701;28;19931;-76
2022/03/16 03:52:47;;;;;;;;;;;3.30;99.90;;;;;;4995813;28;19929;-77
2022/03/16 03:55:13;;;;;;;;;;;3.40;99.90;;;;;;4996074;28;19929;-77
2022/03/16 03:57:40;;;;;;;;;;;3.30;99.90;;;;;;5005878;28;20362;-77
2022/03/16 04:00:06;;;;;;;;;;;3.40;99.90;;;;;;5001935;28;19932;-77
2022/03/16 04:02:33;;;;;;;;;;;3.30;99.90;;;;;;5012133;28;19930;-78
2022/03/16 04:05:00;;;;;;;;;;;3.30;99.90;;;;;;5010210;28;19930;-77
2022/03/16 04:07:26;;;;;;;;;;;3.20;99.90;;;;;;5004442;28;19932;-76
2022/03/16 04:09:53;;;;;;;;;;;3.20;99.90;;;;;;5010588;28;19956;-77
2022/03/16 04:12:19;;;;;;;;;;;3.20;99.90;;;;;;5002493;28;19925;-79
2022/03/16 04:14:46;;;;;;;;;;;3.20;99.90;;;;;;4998943;28;19933;-77
2022/03/16 04:17:12;;;;;;;;;;;3.20;99.90;;;;;;4999661;28;20425;-77
2022/03/16 04:19:39;;;;;;;;;;;3.20;99.90;;;;;;5005144;28;19930;-77
2022/03/16 04:22:06;;;;;;;;;;;3.10;99.90;;;;;;5010725;28;19936;-80
2022/03/16 04:24:32;;;;;;;;;;;3.10;99.90;;;;;;5003969;28;19925;-81
2022/03/16 04:26:59;;;;;;;;;;;3.10;99.90;;;;;;5004360;28;19931;-77
2022/03/16 04:29:25;;;;;;;;;;;3.10;99.90;;;;;;5009707;28;19932;-76
2022/03/16 04:31:52;;;;;;;;;;;3.00;99.90;;;;;;5001249;28;20372;-77
2022/03/16 04:34:18;;;;;;;;;;;3.10;99.90;;;;;;5005038;28;19925;-77
2022/03/16 04:36:47;;;;;;;;;;;3.00;99.90;;;;;;5007162;28;20204;-77
2022/03/16 04:39:13;;;;;;;;;;;3.00;99.90;;;;;;5003069;28;19936;-77
2022/03/16 04:41:40;;;;;;;;;;;3.00;99.90;;;;;;5010210;28;19926;-77
2022/03/16 04:44:06;;;;;;;;;;;2.90;99.90;;;;;;5001448;28;19930;-77
2022/03/16 04:46:33;;;;;;;;;;;2.90;99.90;;;;;;4999465;28;19937;-77
2022/03/16 04:48:59;;;;;;;;;;;2.90;99.90;;;;;;5004032;28;19933;-77
2022/03/16 04:51:26;;;;;;;;;;;2.90;99.90;;;;;;4998978;28;19925;-77
2022/03/16 04:53:52;;;;;;;;;;;2.90;99.90;;;;;;4996114;28;19926;-77
2022/03/16 04:56:19;;;;;;;;;;;2.90;99.90;;;;;;4992457;28;19934;-77
2022/03/16 04:58:45;;;;;;;;;;;3.00;99.90;;;;;;5006196;28;19933;-77
2022/03/16 05:01:12;;;;;;;;;;;3.00;99.90;;;;;;4987604;28;19926;-76
2022/03/16 05:03:38;;;;;;;;;;;3.00;99.90;;;;;;5003029;28;19993;-77
2022/03/16 05:06:05;;;;;;;;;;;3.00;99.90;;;;;;4991070;28;19925;-77
2022/03/16 05:08:35;;;;;;;;;;;3.00;99.90;;;;;;4990955;28;19972;-76
2022/03/16 05:11:01;;;;;;;;;;;3.10;99.90;;;;;;4985130;28;19927;-75
2022/03/16 05:13:28;;;;;;;;;;;3.10;99.90;;;;;;4989877;28;19929;-76
2022/03/16 05:15:54;;;;;;;;;;;3.10;99.90;;;;;;4980338;28;19971;-77
2022/03/16 05:18:23;;;;;;;;;;;3.00;99.90;;;;;;4989158;28;20301;-75
2022/03/16 05:20:49;;;;;;;;;;;3.10;99.90;;;;;;4990149;28;20421;-77
2022/03/16 05:23:16;;;;;;;;;;;3.10;99.90;;;;;;4989067;28;20383;-77
2022/03/16 05:25:42;;;;;;;;;;;3.10;99.90;;;;;;4991297;28;20369;-77
2022/03/16 05:28:09;;;;;;;;;;;3.10;99.90;;;;;;4992804;28;19925;-77
2022/03/16 05:30:35;;;;;;;;;;;3.10;99.90;;;;;;4996610;28;20375;-76
2022/03/16 05:33:02;;;;;;;;;;;3.10;99.90;;;;;;4995517;28;20301;-75
2022/03/16 05:35:29;;;;;;;;;;;3.00;99.90;;;;;;5006436;28;20032;-76
2022/03/16 05:37:55;;;;;;;;;;;3.00;99.90;;;;;;4990814;28;20392;-76
2022/03/16 05:40:22;;;;;;;;;;;3.00;99.90;;;;;;4994372;28;19925;-76
2022/03/16 05:42:48;;;;;;;;;;;3.10;99.90;;;;;;4989294;28;19925;-77
2022/03/16 05:45:15;;;;;;;;;;;3.10;99.90;;;;;;5004110;28;20365;-76
2022/03/16 05:47:41;;;;;;;;;;;3.10;99.90;;;;;;4995103;28;19933;-77
2022/03/16 05:50:08;;;;;;;;;;;3.10;99.90;;;;;;4989930;28;19926;-77
2022/03/16 05:52:34;;;;;;;;;;;3.20;99.90;;;;;;5006756;28;19977;-76
2022/03/16 05:55:01;;;;;;;;;;;3.20;99.90;;;;;;5002222;28;19929;-76
2022/03/16 05:57:28;;;;;;;;;;;3.20;99.90;;;;;;4977496;28;20341;-76
2022/03/16 05:59:54;;;;;;;;;;;3.20;99.90;;;;;;4989468;28;19930;-76
2022/03/16 06:02:21;;;;;;;;;;;3.30;99.90;;;;;;4985979;28;19934;-75
2022/03/16 06:04:47;;;;;;;;;;;3.30;99.90;;;;;;4986830;28;19926;-77
2022/03/16 06:07:14;;;;;;;;;;;3.20;99.90;;;;;;4982916;28;19936;-76
2022/03/16 06:09:41;;;;;;;;;;;3.20;99.90;;;;;;4983888;28;19940;-80
2022/03/16 06:12:07;;;;;;;;;;;3.20;99.90;;;;;;5006650;28;19926;-76
2022/03/16 06:14:34;;;;;;;;;;;3.20;99.90;;;;;;4992091;28;19927;-76
2022/03/16 06:17:00;;;;;;;;;;;3.20;99.90;;;;;;4988973;28;19976;-76
2022/03/16 06:19:27;;;;;;;;;;;3.30;99.90;;;;;;4984838;28;19930;-75
2022/03/16 06:21:53;;;;;;;;;;;3.30;99.90;;;;;;4981419;28;19926;-76
2022/03/16 06:24:20;;;;;;;;;;;3.30;99.90;;;;;;4988561;28;19926;-76
2022/03/16 06:26:46;;;;;;;;;;;3.40;99.90;;;;;;4993256;28;19933;-77
2022/03/16 06:29:13;;;;;;;;;;;3.50;99.90;;;;;;4978484;28;19929;-76
2022/03/16 06:31:39;;;;;;;;;;;3.50;99.90;;;;;;4989705;28;20396;-76
2022/03/16 06:34:06;;;;;;;;;;;3.50;99.90;;;;;;4974756;28;20373;-77
2022/03/16 06:36:32;;;;;;;;;;;3.60;99.90;;;;;;4980731;28;20374;-77
2022/03/16 06:38:59;;;;;;;;;;;3.60;99.90;;;;;;4990816;28;19926;-78
2022/03/16 06:41:26;;;;;;;;;;;3.70;99.90;;;;;;4991096;28;19926;-78
2022/03/16 06:43:52;;;;;;;;;;;3.70;99.90;;;;;;4981163;28;20374;-79
2022/03/16 06:46:19;;;;;;;;;;;3.70;99.90;;;;;;4989070;28;20383;-77
2022/03/16 06:48:45;;;;;;;;;;;3.80;99.90;;;;;;4986196;28;19932;-80
2022/03/16 06:51:12;;;;;;;;;;;3.80;99.90;;;;;;4982591;28;19948;-76
2022/03/16 06:53:38;;;;;;;;;;;3.90;99.90;;;;;;4990798;28;19933;-78
2022/03/16 06:56:05;;;;;;;;;;;3.90;99.90;;;;;;5005002;28;19926;-78
2022/03/16 06:58:32;;;;;;;;;;;3.90;99.90;;;;;;5011175;28;19956;-78
2022/03/16 07:00:58;;;;;;;;;;;4.00;99.90;;;;;;5000685;28;19926;-77
2022/03/16 07:03:25;;;;;;;;;;;4.00;99.90;;;;;;5005879;28;19930;-78
2022/03/16 07:05:51;;;;;;;;;;;4.10;99.90;;;;;;5013922;28;19926;-78
2022/03/16 07:08:18;;;;;;;;;;;4.10;99.90;;;;;;5008004;28;19932;-78
2022/03/16 07:10:44;;;;;;;;;;;4.10;99.90;;;;;;5010509;28;20029;-78
2022/03/16 07:13:11;;;;;;;;;;;4.10;99.90;;;;;;5008634;28;19925;-79
2022/03/16 07:15:38;;;;;;;;;;;4.20;99.90;;;;;;5007361;28;20013;-78
2022/03/16 07:18:04;;;;;;;;;;;4.20;99.90;;;;;;5013460;28;19969;-78
2022/03/16 07:20:31;;;;;;;;;;;4.20;99.90;;;;;;5006517;28;19931;-77
2022/03/16 07:22:57;;;;;;;;;;;4.30;99.90;;;;;;5009733;28;19955;-78
2022/03/16 07:25:24;;;;;;;;;;;4.30;99.90;;;;;;5010170;28;19925;-76
2022/03/16 07:27:50;;;;;;;;;;;4.40;99.90;;;;;;5004268;28;19930;-77
2022/03/16 07:30:17;;;;;;;;;;;4.40;99.90;;;;;;5009821;28;19936;-76
2022/03/16 07:32:44;;;;;;;;;;;4.40;99.90;;;;;;5008723;28;19933;-77
2022/03/16 07:35:10;;;;;;;;;;;4.50;99.90;;;;;;5015573;28;20368;-78
2022/03/16 07:37:37;;;;;;;;;;;4.50;99.90;;;;;;5010918;28;20480;-78
2022/03/16 07:40:03;;;;;;;;;;;4.50;99.90;;;;;;5014509;28;20368;-76
2022/03/16 07:42:30;;;;;;;;;;;4.50;99.90;;;;;;4998719;28;19926;-78
2022/03/16 07:44:57;;;;;;;;;;;4.60;99.90;;;;;;5011056;28;19926;-77
2022/03/16 07:47:24;;;;;;;;;;;4.60;99.90;;;;;;5009698;28;19932;-78
2022/03/16 07:49:51;;;;;;;;;;;4.70;99.90;;;;;;4997819;28;20388;-81
2022/03/16 07:52:17;;;;;;;;;;;4.70;99.90;;;;;;5022584;28;19975;-78
2022/03/16 07:54:44;;;;;;;;;;;4.70;99.90;;;;;;5014492;28;19925;-78
2022/03/16 07:57:11;;;;;;;;;;;4.80;99.90;;;;;;5023353;28;20059;-78
2022/03/16 07:59:37;;;;;;;;;;;4.80;99.90;;;;;;5026072;28;19925;-78
2022/03/16 08:02:04;;;;;;;;;;;4.90;99.90;;;;;;5004885;28;20071;-78
2022/03/16 08:04:30;;;;;;;;;;;5.00;99.90;;;;;;5019603;28;19925;-78
2022/03/16 08:06:57;;;;;;;;;;;5.00;99.90;;;;;;5012185;28;19929;-78
2022/03/16 08:09:23;;;;;;;;;;;5.20;99.90;;;;;;5026460;28;19932;-78
2022/03/16 08:11:50;;;;;;;;;;;5.50;99.90;;;;;;5025231;28;20375;-78
2022/03/16 08:14:16;;;;;;;;;;;5.60;99.90;;;;;;5035726;28;19931;-78
2022/03/16 08:16:43;;;;;;;;;;;5.70;99.90;;;;;;5030924;28;19926;-79
2022/03/16 08:19:09;;;;;;;;;;;5.80;99.90;;;;;;5030944;28;19933;-80
2022/03/16 08:21:36;;;;;;;;;;;5.80;99.90;;;;;;5007044;28;20384;-76
2022/03/16 08:24:02;;;;;;;;;;;5.90;99.90;;;;;;5017193;28;19929;-78
2022/03/16 08:26:29;;;;;;;;;;;6.00;99.90;;;;;;5009756;28;19926;-78
2022/03/16 08:28:56;;;;;;;;;;;6.10;99.90;;;;;;5019730;28;19929;-79
2022/03/16 08:31:22;;;;;;;;;;;6.10;99.90;;;;;;5021322;28;19926;-78
2022/03/16 08:33:49;;;;;;;;;;;6.20;99.90;;;;;;5007956;28;19925;-78
2022/03/16 08:36:15;;;;;;;;;;;6.20;99.90;;;;;;5007698;28;19929;-78
2022/03/16 08:38:42;;;;;;;;;;;6.30;99.90;;;;;;5013112;28;19925;-77
2022/03/16 08:41:10;;;;;;;;;;;6.50;99.90;;;;;;5026567;28;19925;-78
2022/03/16 08:43:36;;;;;;;;;;;6.70;99.90;;;;;;5029529;28;19932;-79
2022/03/16 08:46:03;;;;;;;;;;;6.80;99.90;;;;;;5009505;28;19929;-78
2022/03/16 08:48:30;;;;;;;;;;;7.00;99.90;;;;;;5022773;28;19976;-80
2022/03/16 08:50:56;;;;;;;;;;;7.00;99.90;;;;;;5026025;28;19925;-82
2022/03/16 08:53:24;;;;;;;;;;;7.10;99.90;;;;;;5015895;28;19934;-77
2022/03/16 08:55:51;;;;;;;;;;;7.30;99.90;;;;;;5028006;28;19936;-79
2022/03/16 08:58:17;;;;;;;;;;;7.40;99.90;;;;;;5004868;28;20440;-78
2022/03/16 09:00:44;;;;;;;;;;;7.60;99.90;;;;;;5007455;28;20101;-78
2022/03/16 09:03:10;;;;;;;;;;;7.60;99.90;;;;;;5011139;28;20292;-76
2022/03/16 09:05:37;;;;;;;;;;;7.80;99.90;;;;;;5011392;28;19936;-78
2022/03/16 09:08:04;;;;;;;;;;;8.00;99.90;;;;;;5028746;28;19965;-77
2022/03/16 09:10:30;;;;;;;;;;;8.00;99.90;;;;;;5011596;28;19964;-78
2022/03/16 09:12:57;;;;;;;;;;;8.10;99.90;;;;;;5013830;28;20304;-80
2022/03/16 09:15:23;;;;;;;;;;;8.40;99.90;;;;;;5018560;28;19939;-78
2022/03/16 09:17:50;;;;;;;;;;;8.60;99.90;;;;;;5027030;28;19948;-77
2022/03/16 09:20:17;;;;;;;;;;;8.80;99.90;;;;;;5016148;28;19969;-78
2022/03/16 09:22:43;;;;;;;;;;;8.90;99.90;;;;;;5024864;28;19932;-78
2022/03/16 09:25:10;;;;;;;;;;;9.20;99.90;;;;;;4993836;28;19933;-78
2022/03/16 09:27:37;;;;;;;;;;;9.30;99.90;;;;;;5011545;28;19931;-79
2022/03/16 09:30:03;;;;;;;;;;;9.40;99.90;;;;;;4993050;28;20342;-79
2022/03/16 09:32:30;;;;;;;;;;;9.60;99.90;;;;;;4993481;28;19934;-78
2022/03/16 09:34:59;;;;;;;;;;;9.70;99.90;;;;;;5010228;28;19929;-78
2022/03/16 09:37:25;;;;;;;;;;;9.90;99.90;;;;;;5013323;28;19925;-78
2022/03/16 09:39:52;;;;;;;;;;;10.10;99.90;;;;;;4996251;28;19933;-78
2022/03/16 09:42:19;;;;;;;;;;;10.20;99.90;;;;;;4992648;28;19930;-78
2022/03/16 09:44:46;;;;;;;;;;;10.40;99.90;;;;;;5011002;28;19929;-78
2022/03/16 09:47:13;;;;;;;;;;;10.50;99.90;;;;;;5015479;28;19941;-78
2022/03/16 09:49:39;;;;;;;;;;;10.60;99.90;;;;;;4997558;28;19925;-78
2022/03/16 09:52:07;;;;;;;;;;;10.80;99.90;;;;;;4998178;28;19929;-77
2022/03/16 09:54:33;;;;;;;;;;;10.90;99.90;;;;;;5000396;28;19926;-78
2022/03/16 09:57:00;;;;;;;;;;;11.10;99.90;;;;;;5003931;28;19925;-78
2022/03/16 09:59:26;;;;;;;;;;;11.20;99.90;;;;;;5014945;28;19930;-78
2022/03/16 10:01:53;;;;;;;;;;;11.20;99.90;;;;;;5018219;28;19937;-79
2022/03/16 10:04:19;;;;;;;;;;;11.20;99.90;;;;;;5004019;28;19948;-78
2022/03/16 10:06:46;;;;;;;;;;;11.10;99.90;;;;;;5000534;28;19929;-77
2022/03/16 10:14:42;;;;;;;;;;;11.50;99.90;;;;;;5018167;28;20276;-78
2022/03/16 10:19:52;;;;;;;;;;;11.70;99.90;;;;;;5003219;28;19925;-77
2022/03/16 10:22:19;;;;;;;;;;;11.80;99.90;;;;;;5021827;28;20309;-79
2022/03/16 10:24:45;;;;;;;;;;;11.90;99.90;;;;;;5014801;28;20385;-78
2022/03/16 10:27:12;;;;;;;;;;;11.90;99.90;;;;;;5019364;28;19932;-79
2022/03/16 10:29:38;;;;;;;;;;;12.00;99.90;;;;;;5003976;28;19929;-78
2022/03/16 10:32:05;;;;;;;;;;;12.10;99.90;;;;;;5017649;28;19929;-80
2022/03/16 10:34:32;;;;;;;;;;;12.20;99.90;;;;;;4999329;28;19933;-79
2022/03/16 10:36:59;;;;;;;;;;;12.30;99.90;;;;;;5000187;28;19926;-78
2022/03/16 10:39:25;;;;;;;;;;;12.40;99.90;;;;;;5008027;28;20123;-77
2022/03/16 10:47:20;;;;;;;;;;;12.40;99.90;;;;;;5007239;28;19975;-79
2022/03/16 10:49:48;;;;;;;;;;;12.50;99.90;;;;;;5001590;28;19929;-79
2022/03/16 10:52:18;;;;;;;;;;;12.60;99.90;;;;;;5015224;28;19933;-79
2022/03/16 10:54:45;;;;;;;;;;;12.60;99.90;;;;;;5005521;28;19925;-79
2022/03/16 10:57:14;;;;;;;;;;;12.70;99.90;;;;;;5000609;28;20020;-79
2022/03/16 10:59:42;;;;;;;;;;;12.60;99.90;;;;;;4998441;28;19925;-78
2022/03/16 11:02:12;;;;;;;;;;;12.70;99.90;;;;;;4996506;28;19925;-81
2022/03/16 11:04:38;;;;;;;;;;;12.70;99.90;;;;;;5016455;28;20387;-79
2022/03/16 11:07:05;;;;;;;;;;;12.70;99.90;;;;;;5001625;28;20353;-79
2022/03/16 11:09:31;;;;;;;;;;;12.80;99.90;;;;;;5008227;28;19929;-77
2022/03/16 11:14:43;;;;;;;;;;;12.80;99.90;;;;;;5001820;28;19933;-80
2022/03/16 11:17:10;;;;;;;;;;;12.90;99.90;;;;;;5013967;28;19968;-81
2022/03/16 11:19:36;;;;;;;;;;;12.80;99.90;;;;;;5002118;28;20017;-79
2022/03/16 11:22:03;;;;;;;;;;;13.00;99.90;;;;;;5001059;28;20392;-79
2022/03/16 11:24:29;;;;;;;;;;;12.90;99.90;;;;;;5018422;28;20396;-79
2022/03/16 11:26:56;;;;;;;;;;;12.90;99.90;;;;;;5002642;28;20342;-79
2022/03/16 11:29:22;;;;;;;;;;;12.90;99.90;;;;;;5016396;28;19925;-79
2022/03/16 11:31:49;;;;;;;;;;;13.00;99.90;;;;;;5015300;28;19925;-79
2022/03/16 11:34:16;;;;;;;;;;;13.00;99.90;;;;;;5000390;28;19925;-79
2022/03/16 11:36:42;;;;;;;;;;;12.90;99.90;;;;;;5014535;28;19926;-79
2022/03/16 11:39:11;;;;;;;;;;;12.90;99.90;;;;;;5000185;28;19926;-79
2022/03/16 11:41:43;;;;;;;;;;;13.10;99.90;;;;;;4997518;28;20835;-78
2022/03/16 11:44:09;;;;;;;;;;;13.10;99.90;;;;;;5001184;28;20361;-79
2022/03/16 11:46:39;;;;;;;;;;;13.20;99.90;;;;;;5015691;28;20305;-79
2022/03/16 11:49:05;;;;;;;;;;;13.20;99.90;;;;;;5015599;28;19925;-78
2022/03/16 11:51:32;;;;;;;;;;;13.20;99.90;;;;;;4997265;28;19926;-78
2022/03/16 11:54:01;;;;;;;;;;;13.30;99.90;;;;;;5016876;28;20008;-79
2022/03/16 11:56:29;;;;;;;;;;;13.30;99.90;;;;;;4998957;28;19929;-79
2022/03/16 11:58:55;;;;;;;;;;;13.40;99.90;;;;;;5005569;28;20029;-80
2022/03/16 12:01:22;;;;;;;;;;;13.40;99.90;;;;;;4998320;28;19925;-78
2022/03/16 12:03:48;;;;;;;;;;;13.30;99.90;;;;;;5006440;28;20425;-78
2022/03/16 12:06:15;;;;;;;;;;;13.50;99.90;;;;;;5029619;28;20369;-81
2022/03/16 12:08:41;;;;;;;;;;;13.50;99.90;;;;;;5022219;28;20292;-78
2022/03/16 12:13:53;;;;;;;;;;;13.60;99.90;;;;;;5027637;28;19936;-78
2022/03/16 12:16:20;;;;;;;;;;;13.60;99.90;;;;;;5008589;28;19925;-79
2022/03/16 12:18:46;;;;;;;;;;;13.70;99.90;;;;;;5025419;28;19925;-78
2022/03/16 12:21:14;;;;;;;;;;;13.70;99.90;;;;;;5016123;28;19929;-82
2022/03/16 12:23:41;;;;;;;;;;;13.70;99.90;;;;;;5000439;28;20372;-78
2022/03/16 12:26:08;;;;;;;;;;;13.80;99.80;;;;;;5020343;28;20531;-79
2022/03/16 12:31:19;;;;;;;;;;;13.80;99.70;;;;;;5009217;28;19932;-78
2022/03/16 12:33:46;;;;;;;;;;;13.80;99.10;;;;;;5020833;28;19925;-79
2022/03/16 12:36:12;;;;;;;;;;;13.80;99.50;;;;;;5023726;28;19925;-79
2022/03/16 12:38:39;;;;;;;;;;;13.90;98.80;;;;;;5032041;28;20375;-78
2022/03/16 12:43:50;;;;;;;;;;;14.00;99.00;;;;;;5023277;28;19925;-78
2022/03/16 12:46:17;;;;;;;;;;;14.00;97.80;;;;;;5030768;28;19929;-81
2022/03/16 12:48:43;;;;;;;;;;;14.10;98.20;;;;;;5010938;28;19932;-79
2022/03/16 12:51:10;;;;;;;;;;;14.00;97.60;;;;;;5009265;28;19933;-78
2022/03/16 12:53:44;;;;;;;;;;;14.10;98.70;;;;;;5011980;28;19921;-78
2022/03/16 12:56:11;;;;;;;;;;;14.10;98.10;;;;;;5021436;28;19925;-78
2022/03/16 12:58:37;;;;;;;;;;;14.00;98.00;;;;;;5029781;28;19921;-78
2022/03/16 13:01:04;;;;;;;;;;;14.00;98.80;;;;;;5021661;28;19925;-78
2022/03/16 13:03:30;;;;;;;;;;;14.00;98.40;;;;;;5028442;28;19937;-78
2022/03/16 13:05:57;;;;;;;;;;;14.00;97.10;;;;;;5020989;28;19932;-78
2022/03/16 13:08:24;;;;;;;;;;;14.00;97.40;;;;;;5025994;28;20008;-78
2022/03/16 13:13:34;;;;;;;;;;;14.00;97.30;;;;;;5011687;28;20060;-77
2022/03/16 13:16:02;;;;;;;;;;;14.10;97.20;;;;;;5026053;28;19932;-77
2022/03/16 13:18:29;;;;;;;;;;;14.10;98.00;;;;;;5022917;28;19926;-78
2022/03/16 13:20:55;;;;;;;;;;;14.20;97.60;;;;;;5020270;28;19925;-78
2022/03/16 13:23:22;;;;;;;;;;;14.20;97.60;;;;;;5029994;28;19925;-79
2022/03/16 13:25:48;;;;;;;;;;;14.20;97.40;;;;;;5023141;28;19925;-78
2022/03/16 13:28:16;;;;;;;;;;;14.10;97.10;;;;;;5015704;28;19944;-79
2022/03/16 13:30:42;;;;;;;;;;;14.20;97.20;;;;;;5029613;28;19925;-77
2022/03/16 13:33:15;;;;;;;;;;;14.10;97.00;;;;;;5013763;28;19933;-78
2022/03/16 13:35:41;;;;;;;;;;;14.10;97.00;;;;;;5019341;28;20012;-76
2022/03/16 13:38:08;;;;;;;;;;;14.10;96.80;;;;;;5018207;28;19929;-79
2022/03/16 13:40:37;;;;;;;;;;;14.10;97.00;;;;;;5014064;28;19925;-78
2022/03/16 13:43:04;;;;;;;;;;;14.10;96.80;;;;;;5024528;28;19965;-79
2022/03/16 13:45:31;;;;;;;;;;;14.10;97.10;;;;;;5028222;28;19932;-79
2022/03/16 13:47:58;;;;;;;;;;;14.10;96.90;;;;;;5017594;28;19936;-79
2022/03/16 13:50:27;;;;;;;;;;;14.00;96.50;;;;;;5018223;28;20280;-79
2022/03/16 13:52:55;;;;;;;;;;;14.00;96.70;;;;;;5018787;28;19965;-79
2022/03/16 13:55:21;;;;;;;;;;;13.90;97.10;;;;;;5009508;28;19925;-83
2022/03/16 13:57:48;;;;;;;;;;;14.00;97.00;;;;;;5018222;28;19936;-78
2022/03/16 14:00:15;;;;;;;;;;;13.90;96.90;;;;;;5006654;28;19925;-79
2022/03/16 14:02:41;;;;;;;;;;;13.80;97.50;;;;;;5010103;28;19922;-80
2022/03/16 14:05:08;;;;;;;;;;;13.80;98.10;;;;;;5024469;28;19929;-80
2022/03/16 14:07:34;;;;;;;;;;;13.80;98.10;;;;;;5013816;28;19930;-78
2022/03/16 14:10:01;;;;;;;;;;;13.70;97.90;;;;;;4993990;28;19951;-79
2022/03/16 14:12:28;;;;;;;;;;;13.60;98.10;;;;;;5016209;28;19941;-79
2022/03/16 14:14:54;;;;;;;;;;;13.60;98.60;;;;;;5005251;28;19929;-78
2022/03/16 14:17:21;;;;;;;;;;;13.70;99.30;;;;;;5020511;28;20004;-78
2022/03/16 14:19:48;;;;;;;;;;;13.60;98.90;;;;;;5023687;28;19926;-80
2022/03/16 14:22:16;;;;;;;;;;;13.70;98.50;;;;;;4995731;28;19925;-78
2022/03/16 14:24:43;;;;;;;;;;;13.70;98.40;;;;;;4993925;28;20000;-78
2022/03/16 14:27:19;;;;;;;;;;;13.70;99.10;;;;;;5000958;28;19925;-77
2022/03/16 14:29:46;;;;;;;;;;;13.70;99.10;;;;;;5018137;28;20336;-79
2022/03/16 14:32:13;;;;;;;;;;;13.80;99.10;;;;;;4997180;28;20369;-78
2022/03/16 14:34:40;;;;;;;;;;;13.80;98.50;;;;;;5017056;28;20384;-77
2022/03/16 14:37:06;;;;;;;;;;;13.80;98.70;;;;;;5014742;28;19932;-78
2022/03/16 14:39:33;;;;;;;;;;;13.80;97.60;;;;;;5002484;28;19988;-78
2022/03/16 14:41:59;;;;;;;;;;;13.70;98.50;;;;;;5017691;28;20412;-76
2022/03/16 14:44:26;;;;;;;;;;;13.70;98.80;;;;;;4997443;28;19948;-81
2022/03/16 14:46:52;;;;;;;;;;;13.60;98.70;;;;;;5026655;28;19925;-78
2022/03/16 14:49:19;;;;;;;;;;;13.70;98.20;;;;;;5023803;28;19925;-77
2022/03/16 14:51:45;;;;;;;;;;;13.60;97.60;;;;;;5032234;28;19932;-78
2022/03/16 14:54:12;;;;;;;;;;;13.60;97.20;;;;;;5013860;28;19932;-78
2022/03/16 14:56:38;;;;;;;;;;;13.40;97.60;;;;;;5022254;28;19929;-78
2022/03/16 14:59:05;;;;;;;;;;;13.40;97.30;;;;;;5033030;28;19925;-78